createdAt,value
2019-03-03T00:00:47.024Z,12.80
2019-03-03T00:01:47.087Z,18.30
2019-03-03T00:02:47.012Z,16.70
2019-03-03T00:03:46.988Z,15.20
2019-03-03T00:04:47.007Z,13.90
2019-03-03T00:05:47.000Z,14.30
2019-03-03T00:06:46.942Z,13.50
2019-03-03T00:07:46.950Z,18.90
2019-03-03T00:08:47.007Z,13.60
2019-03-03T00:09:46.912Z,14.70
2019-03-03T00:10:46.955Z,16.70
2019-03-03T00:11:46.937Z,12.70
2019-03-03T00:12:46.899Z,14.70
2019-03-03T00:13:46.942Z,14.80
2019-03-03T00:14:46.907Z,14.20
2019-03-03T00:15:46.859Z,12.30
2019-03-03T00:16:46.844Z,12.70
2019-03-03T00:17:46.849Z,12.50
2019-03-03T00:18:46.830Z,13.50
2019-03-03T00:19:46.843Z,11.10
2019-03-03T00:20:46.816Z,13.90
2019-03-03T00:21:46.815Z,12.60
2019-03-03T00:22:46.792Z,14.20
2019-03-03T00:23:46.763Z,12.90
2019-03-03T00:24:46.774Z,12.20
2019-03-03T00:25:46.751Z,10.80
2019-03-03T00:26:46.725Z,9.70
2019-03-03T00:27:46.759Z,13.00
2019-03-03T00:28:46.707Z,14.10
2019-03-03T00:29:46.736Z,11.70
2019-03-03T00:30:46.701Z,9.70
2019-03-03T00:31:46.681Z,12.50
2019-03-03T00:32:46.689Z,21.60
2019-03-03T00:33:46.657Z,13.90
2019-03-03T00:34:46.641Z,15.20
2019-03-03T00:35:46.634Z,13.70
2019-03-03T00:36:46.620Z,14.80
2019-03-03T00:37:46.644Z,17.30
2019-03-03T00:38:46.626Z,13.40
2019-03-03T00:39:46.593Z,15.00
2019-03-03T00:40:46.580Z,15.80
2019-03-03T00:41:46.566Z,11.30
2019-03-03T00:42:46.570Z,10.80
2019-03-03T00:43:46.555Z,14.90
2019-03-03T00:44:46.547Z,12.90
2019-03-03T00:45:46.520Z,14.30
2019-03-03T00:46:46.510Z,9.80
2019-03-03T00:47:46.502Z,15.00
2019-03-03T00:48:46.515Z,11.00
2019-03-03T00:49:46.483Z,11.20
2019-03-03T00:50:46.492Z,10.70
2019-03-03T00:51:46.467Z,10.10
2019-03-03T00:52:46.494Z,10.30
2019-03-03T00:53:46.448Z,10.50
2019-03-03T00:54:46.422Z,14.50
2019-03-03T00:55:46.415Z,10.30
2019-03-03T00:56:46.403Z,10.50
2019-03-03T00:57:46.394Z,11.10
2019-03-03T00:58:46.430Z,10.30
2019-03-03T00:59:46.381Z,11.50
2019-03-03T01:00:46.355Z,10.30
2019-03-03T01:01:46.439Z,15.40
2019-03-03T01:02:46.401Z,12.90
2019-03-03T01:03:46.332Z,11.90
2019-03-03T01:04:46.351Z,11.00
2019-03-03T01:05:46.522Z,11.10
2019-03-03T01:06:46.300Z,9.70
2019-03-03T01:07:46.290Z,11.40
2019-03-03T01:08:46.332Z,10.70
2019-03-03T01:09:46.289Z,10.90
2019-03-03T01:10:46.306Z,10.20
2019-03-03T01:11:46.260Z,7.20
2019-03-03T01:12:46.244Z,13.20
2019-03-03T01:13:46.241Z,8.80
2019-03-03T01:14:46.226Z,9.10
2019-03-03T01:15:46.194Z,9.00
2019-03-03T01:16:46.190Z,8.70
2019-03-03T01:17:46.190Z,7.90
2019-03-03T01:18:46.207Z,10.70
2019-03-03T01:19:46.150Z,9.80
2019-03-03T01:20:46.146Z,9.00
2019-03-03T01:21:46.155Z,12.70
2019-03-03T01:22:46.157Z,10.40
2019-03-03T01:23:46.148Z,10.20
2019-03-03T01:24:46.208Z,13.80
2019-03-03T01:25:46.118Z,11.70
2019-03-03T01:26:46.114Z,8.60
2019-03-03T01:27:46.097Z,5.90
2019-03-03T01:28:46.163Z,7.60
2019-03-03T01:29:46.106Z,9.80
2019-03-03T01:30:46.144Z,10.90
2019-03-03T01:31:46.089Z,12.80
2019-03-03T01:32:46.035Z,12.30
2019-03-03T01:33:46.033Z,12.80
2019-03-03T01:34:46.101Z,7.80
2019-03-03T01:35:45.993Z,9.60
2019-03-03T01:36:46.166Z,12.30
2019-03-03T01:37:45.975Z,10.50
2019-03-03T01:38:45.972Z,11.50
2019-03-03T01:39:46.006Z,9.30
2019-03-03T01:40:45.946Z,11.50
2019-03-03T01:41:46.049Z,9.30
2019-03-03T01:42:46.000Z,11.50
2019-03-03T01:43:45.912Z,9.80
2019-03-03T01:44:45.943Z,12.80
2019-03-03T01:45:45.910Z,11.10
2019-03-03T01:46:45.915Z,11.80
2019-03-03T01:47:45.972Z,9.40
2019-03-03T01:48:45.952Z,8.70
2019-03-03T01:49:45.829Z,8.30
2019-03-03T01:50:45.841Z,9.50
2019-03-03T01:51:45.859Z,9.70
2019-03-03T01:52:45.808Z,10.90
2019-03-03T01:53:45.808Z,12.90
2019-03-03T01:54:45.780Z,8.40
2019-03-03T01:55:45.818Z,9.00
2019-03-03T01:56:45.762Z,10.00
2019-03-03T01:57:45.766Z,13.20
2019-03-03T01:58:45.799Z,8.50
2019-03-03T01:59:45.830Z,12.70
2019-03-03T02:00:45.757Z,7.00
2019-03-03T02:01:45.702Z,8.40
2019-03-03T02:02:45.847Z,13.40
2019-03-03T02:03:45.851Z,13.00
2019-03-03T02:04:45.670Z,10.00
2019-03-03T02:05:45.741Z,10.00
2019-03-03T02:06:45.793Z,9.50
2019-03-03T02:07:45.708Z,8.60
2019-03-03T02:08:45.670Z,9.40
2019-03-03T02:09:45.783Z,9.30
2019-03-03T02:10:45.618Z,9.30
2019-03-03T02:11:45.676Z,10.60
2019-03-03T02:12:45.718Z,8.00
2019-03-03T02:13:45.600Z,9.20
2019-03-03T02:14:45.576Z,8.70
2019-03-03T02:15:45.557Z,9.60
2019-03-03T02:16:45.547Z,10.30
2019-03-03T02:17:45.615Z,10.80
2019-03-03T02:18:45.527Z,11.20
2019-03-03T02:19:45.513Z,11.80
2019-03-03T02:20:45.522Z,9.10
2019-03-03T02:21:45.481Z,10.10
2019-03-03T02:22:45.477Z,7.30
2019-03-03T02:23:45.484Z,10.90
2019-03-03T02:24:45.449Z,8.40
2019-03-03T02:25:45.475Z,10.70
2019-03-03T02:26:45.463Z,9.90
2019-03-03T02:27:45.416Z,11.10
2019-03-03T02:28:45.440Z,10.30
2019-03-03T02:29:45.403Z,8.20
2019-03-03T02:30:45.389Z,10.00
2019-03-03T02:31:45.377Z,7.60
2019-03-03T02:32:45.381Z,9.80
2019-03-03T02:33:45.383Z,9.60
2019-03-03T02:34:45.421Z,8.70
2019-03-03T02:35:45.338Z,9.80
2019-03-03T02:36:45.441Z,9.30
2019-03-03T02:37:45.370Z,11.00
2019-03-03T02:38:45.413Z,13.10
2019-03-03T02:39:45.330Z,12.10
2019-03-03T02:40:45.318Z,8.80
2019-03-03T02:41:45.373Z,10.20
2019-03-03T02:42:45.302Z,9.60
2019-03-03T02:43:45.321Z,12.80
2019-03-03T02:44:45.244Z,10.10
2019-03-03T02:45:45.232Z,8.90
2019-03-03T02:46:45.263Z,11.90
2019-03-03T02:47:45.221Z,14.60
2019-03-03T02:48:45.199Z,9.70
2019-03-03T02:49:45.181Z,11.10
2019-03-03T02:50:45.205Z,10.40
2019-03-03T02:51:45.169Z,11.70
2019-03-03T02:52:45.195Z,12.20
2019-03-03T02:53:45.139Z,10.10
2019-03-03T02:54:45.124Z,12.70
2019-03-03T02:55:45.131Z,8.80
2019-03-03T02:56:45.174Z,12.00
2019-03-03T02:57:45.124Z,13.60
2019-03-03T02:58:45.109Z,11.30
2019-03-03T02:59:45.073Z,10.60
2019-03-03T03:00:45.085Z,12.60
2019-03-03T03:01:45.065Z,12.60
2019-03-03T03:02:45.040Z,12.30
2019-03-03T03:03:45.043Z,13.40
2019-03-03T03:04:45.074Z,14.30
2019-03-03T03:05:45.167Z,8.50
2019-03-03T03:06:45.011Z,11.90
2019-03-03T03:07:44.985Z,9.40
2019-03-03T03:08:45.031Z,10.80
2019-03-03T03:09:44.983Z,11.70
2019-03-03T03:10:44.979Z,12.00
2019-03-03T03:11:44.945Z,11.70
2019-03-03T03:12:44.944Z,9.70
2019-03-03T03:13:44.941Z,13.20
2019-03-03T03:14:44.961Z,9.00
2019-03-03T03:15:44.918Z,12.30
2019-03-03T03:16:45.033Z,12.50
2019-03-03T03:17:44.877Z,10.70
2019-03-03T03:18:44.886Z,12.20
2019-03-03T03:19:44.858Z,12.40
2019-03-03T03:20:44.943Z,9.50
2019-03-03T03:21:44.843Z,11.20
2019-03-03T03:22:44.868Z,10.50
2019-03-03T03:23:44.815Z,10.70
2019-03-03T03:24:44.817Z,11.00
2019-03-03T03:25:44.788Z,11.10
2019-03-03T03:26:44.829Z,14.30
2019-03-03T03:27:44.797Z,10.20
2019-03-03T03:28:44.765Z,9.10
2019-03-03T03:29:44.755Z,9.10
2019-03-03T03:30:44.755Z,11.50
2019-03-03T03:31:44.726Z,11.20
2019-03-03T03:32:44.775Z,13.90
2019-03-03T03:33:44.718Z,11.90
2019-03-03T03:34:44.725Z,12.10
2019-03-03T03:35:44.732Z,10.90
2019-03-03T03:36:44.782Z,8.50
2019-03-03T03:37:44.752Z,13.80
2019-03-03T03:38:44.721Z,12.10
2019-03-03T03:39:44.677Z,8.20
2019-03-03T03:40:44.638Z,11.10
2019-03-03T03:41:44.809Z,8.80
2019-03-03T03:42:44.683Z,11.50
2019-03-03T03:43:44.601Z,8.30
2019-03-03T03:44:44.670Z,12.80
2019-03-03T03:45:44.664Z,11.40
2019-03-03T03:46:44.656Z,12.00
2019-03-03T03:47:44.606Z,12.60
2019-03-03T03:48:44.611Z,12.00
2019-03-03T03:49:44.581Z,8.80
2019-03-03T03:50:44.639Z,11.60
2019-03-03T03:51:44.613Z,10.50
2019-03-03T03:52:44.517Z,8.80
2019-03-03T03:53:44.574Z,8.20
2019-03-03T03:54:44.483Z,11.70
2019-03-03T03:55:44.487Z,12.20
2019-03-03T03:56:45.175Z,16.30
2019-03-03T03:57:44.478Z,9.70
2019-03-03T03:58:44.439Z,13.40
2019-03-03T03:59:44.459Z,12.00
2019-03-03T04:00:44.526Z,7.40
2019-03-03T04:01:44.535Z,15.80
2019-03-03T04:02:44.416Z,10.20
2019-03-03T04:03:44.389Z,13.40
2019-03-03T04:04:44.398Z,14.30
2019-03-03T04:05:44.458Z,13.70
2019-03-03T04:06:44.419Z,9.00
2019-03-03T04:07:44.499Z,8.80
2019-03-03T04:08:44.332Z,10.70
2019-03-03T04:09:44.354Z,13.70
2019-03-03T04:10:44.322Z,14.00
2019-03-03T04:11:44.298Z,10.70
2019-03-03T04:12:44.353Z,8.30
2019-03-03T04:13:44.356Z,11.50
2019-03-03T04:14:44.264Z,11.70
2019-03-03T04:15:44.278Z,13.60
2019-03-03T04:16:44.325Z,14.60
2019-03-03T04:17:44.371Z,10.80
2019-03-03T04:18:44.303Z,10.70
2019-03-03T04:19:44.218Z,7.90
2019-03-03T04:20:44.244Z,13.80
2019-03-03T04:21:44.273Z,7.30
2019-03-03T04:22:44.248Z,15.00
2019-03-03T04:23:44.200Z,13.80
2019-03-03T04:24:44.156Z,15.00
2019-03-03T04:25:44.226Z,13.40
2019-03-03T04:26:44.155Z,14.00
2019-03-03T04:27:44.151Z,12.20
2019-03-03T04:28:44.134Z,11.30
2019-03-03T04:29:44.100Z,11.90
2019-03-03T04:30:44.100Z,14.90
2019-03-03T04:31:44.124Z,14.80
2019-03-03T04:32:44.656Z,12.60
2019-03-03T04:33:44.064Z,17.40
2019-03-03T04:34:44.046Z,14.70
2019-03-03T04:35:44.088Z,17.50
2019-03-03T04:36:44.068Z,11.60
2019-03-03T04:37:44.263Z,12.80
2019-03-03T04:38:44.060Z,12.60
2019-03-03T04:39:44.019Z,12.80
2019-03-03T04:40:44.049Z,16.40
2019-03-03T04:41:43.979Z,13.00
2019-03-03T04:42:43.978Z,18.70
2019-03-03T04:43:44.056Z,15.00
2019-03-03T04:44:44.033Z,15.50
2019-03-03T04:45:43.949Z,16.60
2019-03-03T04:46:43.942Z,11.60
2019-03-03T04:47:44.050Z,9.10
2019-03-03T04:48:43.951Z,14.10
2019-03-03T04:49:43.888Z,19.30
2019-03-03T04:50:43.878Z,12.60
2019-03-03T04:51:43.969Z,14.60
2019-03-03T04:52:43.877Z,14.40
2019-03-03T04:53:43.837Z,14.70
2019-03-03T04:54:43.845Z,15.30
2019-03-03T04:55:43.840Z,11.20
2019-03-03T04:56:43.838Z,13.90
2019-03-03T04:57:43.826Z,12.50
2019-03-03T04:58:44.001Z,10.20
2019-03-03T04:59:43.778Z,16.10
2019-03-03T05:00:43.798Z,13.40
2019-03-03T05:01:43.780Z,17.20
2019-03-03T05:02:43.782Z,15.50
2019-03-03T05:03:43.815Z,13.40
2019-03-03T05:04:43.720Z,14.10
2019-03-03T05:05:43.783Z,14.50
2019-03-03T05:06:43.746Z,13.70
2019-03-03T05:07:43.725Z,13.60
2019-03-03T05:08:43.773Z,16.90
2019-03-03T05:09:43.764Z,15.40
2019-03-03T05:10:43.689Z,14.20
2019-03-03T05:11:43.646Z,10.70
2019-03-03T05:12:43.712Z,14.00
2019-03-03T05:13:43.729Z,11.80
2019-03-03T05:14:43.633Z,10.90
2019-03-03T05:15:43.630Z,12.90
2019-03-03T05:16:43.599Z,16.90
2019-03-03T05:17:43.584Z,13.30
2019-03-03T05:18:43.592Z,18.40
2019-03-03T05:19:45.368Z,10.70
2019-03-03T05:20:43.591Z,9.80
2019-03-03T05:21:43.581Z,14.60
2019-03-03T05:22:43.567Z,11.40
2019-03-03T05:23:43.519Z,11.40
2019-03-03T05:24:43.563Z,13.90
2019-03-03T05:25:43.515Z,12.00
2019-03-03T05:26:43.501Z,12.10
2019-03-03T05:27:43.468Z,14.00
2019-03-03T05:28:43.499Z,9.40
2019-03-03T05:29:43.465Z,11.40
2019-03-03T05:30:43.532Z,18.50
2019-03-03T05:31:43.449Z,14.10
2019-03-03T05:32:43.487Z,12.70
2019-03-03T05:33:43.407Z,10.20
2019-03-03T05:34:43.468Z,12.60
2019-03-03T05:35:43.447Z,12.30
2019-03-03T05:36:43.433Z,13.20
2019-03-03T05:37:43.402Z,14.30
2019-03-03T05:38:43.350Z,10.10
2019-03-03T05:39:43.497Z,12.80
2019-03-03T05:40:43.347Z,12.90
2019-03-03T05:41:43.327Z,13.50
2019-03-03T05:42:43.402Z,14.90
2019-03-03T05:43:43.329Z,11.40
2019-03-03T05:44:43.346Z,11.60
2019-03-03T05:45:43.291Z,17.00
2019-03-03T05:46:43.287Z,15.40
2019-03-03T05:47:43.252Z,17.30
2019-03-03T05:48:43.274Z,16.30
2019-03-03T05:49:43.242Z,13.40
2019-03-03T05:50:43.229Z,14.30
2019-03-03T05:51:43.211Z,15.30
2019-03-03T05:52:43.201Z,13.80
2019-03-03T05:53:43.194Z,11.30
2019-03-03T05:54:43.296Z,12.20
2019-03-03T05:55:43.166Z,18.80
2019-03-03T05:56:43.165Z,10.20
2019-03-03T05:57:43.162Z,14.00
2019-03-03T05:58:43.278Z,13.70
2019-03-03T05:59:43.129Z,11.80
2019-03-03T06:00:43.144Z,13.60
2019-03-03T06:01:43.320Z,14.20
2019-03-03T06:02:43.112Z,17.10
2019-03-03T06:03:43.217Z,11.10
2019-03-03T06:04:43.074Z,14.50
2019-03-03T06:05:43.125Z,13.10
2019-03-03T06:06:43.067Z,16.60
2019-03-03T06:07:43.102Z,14.70
2019-03-03T06:08:43.050Z,13.60
2019-03-03T06:09:43.027Z,13.50
2019-03-03T06:10:43.007Z,11.50
2019-03-03T06:11:43.008Z,14.80
2019-03-03T06:12:43.012Z,19.40
2019-03-03T06:13:43.023Z,11.20
2019-03-03T06:14:43.019Z,11.90
2019-03-03T06:15:42.954Z,14.60
2019-03-03T06:16:42.994Z,15.10
2019-03-03T06:17:42.953Z,15.50
2019-03-03T06:18:42.943Z,14.10
2019-03-03T06:19:42.943Z,10.80
2019-03-03T06:20:42.924Z,18.30
2019-03-03T06:21:42.965Z,12.40
2019-03-03T06:22:42.874Z,13.00
2019-03-03T06:23:42.900Z,12.70
2019-03-03T06:24:42.919Z,11.60
2019-03-03T06:25:42.932Z,14.50
2019-03-03T06:26:42.853Z,11.80
2019-03-03T06:27:42.831Z,14.20
2019-03-03T06:28:42.824Z,16.00
2019-03-03T06:29:42.808Z,12.50
2019-03-03T06:30:42.826Z,10.10
2019-03-03T06:31:42.834Z,14.50
2019-03-03T06:32:42.795Z,11.80
2019-03-03T06:33:42.808Z,16.80
2019-03-03T06:34:42.745Z,13.20
2019-03-03T06:35:42.779Z,9.10
2019-03-03T06:36:42.763Z,14.20
2019-03-03T06:37:43.689Z,16.30
2019-03-03T06:38:42.746Z,12.90
2019-03-03T06:39:42.707Z,17.30
2019-03-03T06:40:42.729Z,14.70
2019-03-03T06:41:42.691Z,13.80
2019-03-03T06:42:42.662Z,10.70
2019-03-03T06:43:42.654Z,12.50
2019-03-03T06:44:42.690Z,12.20
2019-03-03T06:45:42.641Z,13.60
2019-03-03T06:46:42.672Z,11.80
2019-03-03T06:47:42.629Z,15.10
2019-03-03T06:48:42.647Z,13.70
2019-03-03T06:49:42.592Z,11.30
2019-03-03T06:50:42.626Z,10.20
2019-03-03T06:51:42.621Z,11.80
2019-03-03T06:52:42.576Z,17.50
2019-03-03T06:53:42.557Z,15.70
2019-03-03T06:54:42.646Z,13.90
2019-03-03T06:55:42.595Z,18.10
2019-03-03T06:56:42.519Z,12.00
2019-03-03T06:57:42.526Z,12.50
2019-03-03T06:58:42.540Z,14.70
2019-03-03T06:59:42.539Z,12.80
2019-03-03T07:00:42.549Z,13.10
2019-03-03T07:01:42.469Z,14.50
2019-03-03T07:02:42.450Z,14.90
2019-03-03T07:03:42.477Z,13.00
2019-03-03T07:04:42.499Z,12.20
2019-03-03T07:05:42.471Z,17.00
2019-03-03T07:06:42.508Z,15.90
2019-03-03T07:07:42.450Z,14.20
2019-03-03T07:08:42.409Z,18.80
2019-03-03T07:09:42.423Z,18.20
2019-03-03T07:10:42.367Z,14.70
2019-03-03T07:11:42.370Z,15.10
2019-03-03T07:12:42.392Z,14.20
2019-03-03T07:13:42.359Z,12.80
2019-03-03T07:14:42.363Z,23.20
2019-03-03T07:15:42.314Z,12.20
2019-03-03T07:16:42.339Z,18.50
2019-03-03T07:17:42.297Z,12.70
2019-03-03T07:18:42.380Z,13.50
2019-03-03T07:19:42.369Z,15.90
2019-03-03T07:20:42.342Z,15.20
2019-03-03T07:21:42.248Z,13.90
2019-03-03T07:22:42.246Z,17.40
2019-03-03T07:23:42.310Z,20.20
2019-03-03T07:24:42.288Z,18.90
2019-03-03T07:25:42.208Z,15.70
2019-03-03T07:26:42.322Z,14.40
2019-03-03T07:27:42.220Z,16.60
2019-03-03T07:28:42.180Z,17.60
2019-03-03T07:29:42.226Z,16.80
2019-03-03T07:30:42.219Z,14.90
2019-03-03T07:31:42.151Z,17.70
2019-03-03T07:32:42.234Z,17.20
2019-03-03T07:33:42.122Z,15.60
2019-03-03T07:34:42.162Z,17.40
2019-03-03T07:35:42.175Z,19.40
2019-03-03T07:36:42.151Z,16.90
2019-03-03T07:37:42.202Z,17.80
2019-03-03T07:38:42.084Z,26.10
2019-03-03T07:39:42.172Z,18.30
2019-03-03T07:40:42.065Z,19.90
2019-03-03T07:41:42.072Z,19.20
2019-03-03T07:42:42.104Z,22.40
2019-03-03T07:43:42.040Z,16.10
2019-03-03T07:44:41.997Z,19.30
2019-03-03T07:45:42.032Z,18.40
2019-03-03T07:46:42.067Z,19.80
2019-03-03T07:47:41.979Z,15.70
2019-03-03T07:48:41.993Z,24.40
2019-03-03T07:49:41.959Z,19.20
2019-03-03T07:50:41.996Z,19.10
2019-03-03T07:51:41.955Z,18.10
2019-03-03T07:52:41.960Z,22.70
2019-03-03T07:53:41.904Z,18.70
2019-03-03T07:54:41.922Z,20.10
2019-03-03T07:55:41.877Z,16.80
2019-03-03T07:56:41.869Z,23.40
2019-03-03T07:57:41.896Z,20.40
2019-03-03T07:58:41.847Z,16.30
2019-03-03T07:59:41.838Z,24.60
2019-03-03T08:00:41.843Z,20.60
2019-03-03T08:01:41.871Z,16.90
2019-03-03T08:02:41.875Z,17.90
2019-03-03T08:03:41.872Z,15.40
2019-03-03T08:04:41.828Z,16.90
2019-03-03T08:05:41.799Z,18.20
2019-03-03T08:06:41.808Z,19.60
2019-03-03T08:07:41.805Z,18.90
2019-03-03T08:08:41.754Z,23.00
2019-03-03T08:09:41.775Z,20.10
2019-03-03T08:10:41.793Z,17.20
2019-03-03T08:11:41.716Z,22.40
2019-03-03T08:12:41.720Z,18.90
2019-03-03T08:13:41.695Z,17.90
2019-03-03T08:14:41.707Z,17.90
2019-03-03T08:15:41.708Z,20.00
2019-03-03T08:16:41.668Z,19.40
2019-03-03T08:17:41.660Z,21.50
2019-03-03T08:18:41.677Z,19.90
2019-03-03T08:19:41.651Z,19.90
2019-03-03T08:20:41.639Z,21.40
2019-03-03T08:21:41.660Z,24.10
2019-03-03T08:22:41.634Z,15.20
2019-03-03T08:23:41.583Z,20.30
2019-03-03T08:24:41.587Z,20.20
2019-03-03T08:25:41.557Z,18.00
2019-03-03T08:26:41.649Z,22.00
2019-03-03T08:27:41.586Z,18.60
2019-03-03T08:28:41.527Z,13.90
2019-03-03T08:29:41.517Z,21.80
2019-03-03T08:30:41.544Z,18.00
2019-03-03T08:31:41.580Z,21.40
2019-03-03T08:32:41.526Z,16.60
2019-03-03T08:33:41.506Z,27.40
2019-03-03T08:34:41.488Z,23.90
2019-03-03T08:35:41.503Z,17.10
2019-03-03T08:36:41.449Z,17.90
2019-03-03T08:37:41.512Z,17.60
2019-03-03T08:38:41.469Z,26.00
2019-03-03T08:39:41.499Z,16.20
2019-03-03T08:40:41.458Z,23.50
2019-03-03T08:41:41.442Z,21.50
2019-03-03T08:42:41.407Z,20.30
2019-03-03T08:43:41.397Z,22.60
2019-03-03T08:44:41.494Z,19.80
2019-03-03T08:45:41.415Z,23.80
2019-03-03T08:46:41.430Z,20.30
2019-03-03T08:47:41.430Z,16.50
2019-03-03T08:48:41.330Z,19.20
2019-03-03T08:49:41.380Z,16.90
2019-03-03T08:50:41.685Z,19.40
2019-03-03T08:51:41.361Z,26.00
2019-03-03T08:52:41.325Z,17.60
2019-03-03T08:53:41.269Z,21.80
2019-03-03T08:54:41.270Z,16.40
2019-03-03T08:55:41.245Z,20.10
2019-03-03T08:56:41.248Z,15.70
2019-03-03T08:57:41.306Z,17.30
2019-03-03T08:58:41.323Z,22.00
2019-03-03T08:59:41.237Z,17.50
2019-03-03T09:00:41.235Z,17.70
2019-03-03T09:01:41.332Z,18.40
2019-03-03T09:02:41.293Z,16.40
2019-03-03T09:03:41.251Z,16.10
2019-03-03T09:04:41.186Z,21.70
2019-03-03T09:05:41.132Z,19.60
2019-03-03T09:06:41.129Z,19.50
2019-03-03T09:07:41.211Z,17.10
2019-03-03T09:08:41.123Z,18.90
2019-03-03T09:09:41.113Z,25.50
2019-03-03T09:10:41.207Z,21.90
2019-03-03T09:11:41.082Z,19.30
2019-03-03T09:12:41.100Z,25.10
2019-03-03T09:13:41.047Z,25.30
2019-03-03T09:14:41.047Z,17.90
2019-03-03T09:15:41.064Z,19.30
2019-03-03T09:16:41.014Z,15.60
2019-03-03T09:17:41.116Z,18.10
2019-03-03T09:18:41.032Z,14.90
2019-03-03T09:19:41.009Z,15.40
2019-03-03T09:20:41.035Z,16.00
2019-03-03T09:21:40.966Z,14.40
2019-03-03T09:22:40.956Z,19.00
2019-03-03T09:23:40.958Z,13.10
2019-03-03T09:24:40.929Z,12.90
2019-03-03T09:25:40.968Z,14.30
2019-03-03T09:26:40.918Z,12.80
2019-03-03T09:27:40.957Z,13.40
2019-03-03T09:28:40.925Z,13.70
2019-03-03T09:29:40.915Z,11.80
2019-03-03T09:30:40.875Z,12.80
2019-03-03T09:31:40.979Z,15.50
2019-03-03T09:32:40.857Z,14.20
2019-03-03T09:33:40.857Z,14.40
2019-03-03T09:34:40.859Z,14.20
2019-03-03T09:35:40.932Z,20.70
2019-03-03T09:36:40.866Z,12.10
2019-03-03T09:37:40.821Z,12.10
2019-03-03T09:38:40.847Z,18.10
2019-03-03T09:39:40.774Z,13.60
2019-03-03T09:40:40.763Z,20.30
2019-03-03T09:41:40.772Z,13.70
2019-03-03T09:42:40.811Z,14.40
2019-03-03T09:43:40.771Z,10.40
2019-03-03T09:44:40.771Z,21.20
2019-03-03T09:45:40.779Z,15.00
2019-03-03T09:46:40.792Z,16.50
2019-03-03T09:47:40.684Z,12.30
2019-03-03T09:48:40.741Z,12.50
2019-03-03T09:49:40.763Z,11.50
2019-03-03T09:50:40.693Z,18.90
2019-03-03T09:51:40.671Z,15.20
2019-03-03T09:52:40.798Z,16.70
2019-03-03T09:53:40.662Z,14.40
2019-03-03T09:54:40.682Z,15.00
2019-03-03T09:55:40.604Z,11.00
2019-03-03T09:56:40.634Z,16.80
2019-03-03T09:57:40.730Z,16.30
2019-03-03T09:58:40.658Z,11.20
2019-03-03T09:59:40.609Z,10.10
2019-03-03T10:00:40.591Z,12.50
2019-03-03T10:01:40.601Z,11.40
2019-03-03T10:02:40.569Z,13.20
2019-03-03T10:03:40.523Z,11.70
2019-03-03T10:04:40.529Z,14.70
2019-03-03T10:05:40.504Z,14.70
2019-03-03T10:06:40.480Z,11.90
2019-03-03T10:07:40.470Z,11.20
2019-03-03T10:08:40.471Z,12.40
2019-03-03T10:09:40.478Z,12.00
2019-03-03T10:10:40.473Z,12.20
2019-03-03T10:11:40.453Z,12.40
2019-03-03T10:12:40.454Z,9.00
2019-03-03T10:13:40.430Z,8.40
2019-03-03T10:14:40.410Z,9.10
2019-03-03T10:15:40.386Z,8.80
2019-03-03T10:16:40.397Z,10.70
2019-03-03T10:17:41.167Z,11.40
2019-03-03T10:18:40.352Z,14.20
2019-03-03T10:19:40.357Z,10.20
2019-03-03T10:20:40.354Z,10.10
2019-03-03T10:21:40.341Z,11.90
2019-03-03T10:22:40.331Z,10.80
2019-03-03T10:23:40.296Z,14.80
2019-03-03T10:24:40.290Z,10.00
2019-03-03T10:25:40.282Z,8.90
2019-03-03T10:26:40.281Z,9.00
2019-03-03T10:27:40.259Z,9.60
2019-03-03T10:28:41.166Z,9.20
2019-03-03T10:29:40.270Z,11.70
2019-03-03T10:30:40.283Z,13.10
2019-03-03T10:31:40.265Z,10.60
2019-03-03T10:32:40.237Z,11.30
2019-03-03T10:33:40.266Z,13.10
2019-03-03T10:34:40.218Z,9.60
2019-03-03T10:35:41.184Z,14.80
2019-03-03T10:36:40.178Z,9.60
2019-03-03T10:37:40.190Z,14.40
2019-03-03T10:38:40.147Z,11.30
2019-03-03T10:39:40.164Z,9.50
2019-03-03T10:40:40.147Z,9.30
2019-03-03T10:41:40.130Z,9.60
2019-03-03T10:42:40.212Z,14.40
2019-03-03T10:43:40.114Z,10.60
2019-03-03T10:44:40.088Z,10.00
2019-03-03T10:45:40.136Z,10.40
2019-03-03T10:46:40.086Z,9.70
2019-03-03T10:47:40.101Z,11.70
2019-03-03T10:48:40.065Z,8.30
2019-03-03T10:49:40.075Z,11.50
2019-03-03T10:50:40.063Z,9.80
2019-03-03T10:51:40.046Z,6.80
2019-03-03T10:52:40.027Z,11.90
2019-03-03T10:53:40.260Z,14.00
2019-03-03T10:54:39.995Z,16.50
2019-03-03T10:55:39.965Z,10.30
2019-03-03T10:56:40.043Z,8.40
2019-03-03T10:57:39.962Z,7.70
2019-03-03T10:58:39.927Z,12.70
2019-03-03T10:59:40.096Z,7.40
2019-03-03T11:00:39.914Z,12.60
2019-03-03T11:01:40.743Z,14.00
2019-03-03T11:02:39.880Z,12.70
2019-03-03T11:03:39.873Z,10.30
2019-03-03T11:04:39.898Z,9.90
2019-03-03T11:05:39.875Z,10.50
2019-03-03T11:06:39.840Z,8.10
2019-03-03T11:07:39.891Z,8.20
2019-03-03T11:08:39.833Z,10.00
2019-03-03T11:09:39.899Z,9.60
2019-03-03T11:10:39.802Z,10.60
2019-03-03T11:11:39.867Z,8.60
2019-03-03T11:12:39.803Z,8.30
2019-03-03T11:13:39.842Z,9.10
2019-03-03T11:14:39.884Z,10.90
2019-03-03T11:15:39.758Z,11.50
2019-03-03T11:16:39.932Z,8.30
2019-03-03T11:17:39.788Z,9.40
2019-03-03T11:18:39.754Z,10.60
2019-03-03T11:19:39.764Z,10.60
2019-03-03T11:20:39.720Z,12.60
2019-03-03T11:21:39.704Z,9.10
2019-03-03T11:22:39.674Z,8.40
2019-03-03T11:23:39.747Z,10.80
2019-03-03T11:24:39.647Z,10.30
2019-03-03T11:25:39.654Z,11.40
2019-03-03T11:26:39.649Z,9.80
2019-03-03T11:27:39.639Z,9.80
2019-03-03T11:28:39.672Z,10.70
2019-03-03T11:29:39.605Z,10.60
2019-03-03T11:30:39.624Z,7.90
2019-03-03T11:31:39.683Z,11.20
2019-03-03T11:32:39.609Z,11.40
2019-03-03T11:33:39.558Z,10.30
2019-03-03T11:34:39.571Z,9.90
2019-03-03T11:35:39.529Z,10.20
2019-03-03T11:36:39.542Z,10.00
2019-03-03T11:37:39.608Z,11.00
2019-03-03T11:38:39.511Z,9.90
2019-03-03T11:39:39.485Z,12.00
2019-03-03T11:40:39.501Z,15.90
2019-03-03T11:41:39.491Z,9.20
2019-03-03T11:42:39.448Z,10.80
2019-03-03T11:43:39.542Z,13.50
2019-03-03T11:44:39.436Z,12.60
2019-03-03T11:45:39.435Z,9.70
2019-03-03T11:46:39.423Z,9.00
2019-03-03T11:47:39.440Z,10.90
2019-03-03T11:48:39.393Z,11.30
2019-03-03T11:49:39.377Z,10.10
2019-03-03T11:50:39.376Z,10.20
2019-03-03T11:51:39.373Z,10.70
2019-03-03T11:52:39.353Z,9.50
2019-03-03T11:53:39.361Z,10.90
2019-03-03T11:54:39.320Z,8.20
2019-03-03T11:55:39.321Z,13.80
2019-03-03T11:56:39.302Z,9.60
2019-03-03T11:57:39.316Z,9.90
2019-03-03T11:58:39.293Z,10.40
2019-03-03T11:59:39.301Z,8.10
2019-03-03T12:00:39.257Z,7.70
2019-03-03T12:01:39.280Z,12.00
2019-03-03T12:02:39.250Z,11.50
2019-03-03T12:03:39.225Z,7.90
2019-03-03T12:04:39.213Z,9.50
2019-03-03T12:05:39.295Z,8.60
2019-03-03T12:06:39.234Z,11.10
2019-03-03T12:07:39.193Z,8.60
2019-03-03T12:08:39.189Z,11.70
2019-03-03T12:09:39.181Z,11.60
2019-03-03T12:10:39.232Z,12.50
2019-03-03T12:11:39.274Z,11.60
2019-03-03T12:12:39.128Z,9.60
2019-03-03T12:13:39.211Z,12.00
2019-03-03T12:14:39.189Z,14.20
2019-03-03T12:15:39.154Z,12.80
2019-03-03T12:16:39.090Z,10.90
2019-03-03T12:17:39.149Z,9.60
2019-03-03T12:18:39.159Z,10.70
2019-03-03T12:19:39.149Z,12.90
2019-03-03T12:20:39.042Z,15.50
2019-03-03T12:21:39.068Z,9.10
2019-03-03T12:22:39.097Z,10.90
2019-03-03T12:23:39.078Z,14.50
2019-03-03T12:24:39.033Z,8.90
2019-03-03T12:25:39.001Z,11.10
2019-03-03T12:26:38.990Z,11.70
2019-03-03T12:27:39.034Z,10.50
2019-03-03T12:28:39.028Z,9.90
2019-03-03T12:29:39.003Z,8.60
2019-03-03T12:30:38.963Z,11.00
2019-03-03T12:31:38.962Z,9.40
2019-03-03T12:32:38.956Z,9.70
2019-03-03T12:33:38.944Z,9.40
2019-03-03T12:34:38.933Z,10.00
2019-03-03T12:35:38.888Z,10.90
2019-03-03T12:36:38.873Z,11.90
2019-03-03T12:37:38.883Z,11.50
2019-03-03T12:38:38.935Z,14.00
2019-03-03T12:39:38.887Z,13.70
2019-03-03T12:40:38.869Z,13.20
2019-03-03T12:41:39.034Z,12.70
2019-03-03T12:42:38.811Z,14.70
2019-03-03T12:43:38.805Z,12.40
2019-03-03T12:44:38.804Z,12.40
2019-03-03T12:45:38.793Z,12.80
2019-03-03T12:46:38.792Z,11.30
2019-03-03T12:47:38.834Z,10.90
2019-03-03T12:48:38.795Z,11.50
2019-03-03T12:49:38.762Z,11.30
2019-03-03T12:50:38.802Z,11.50
2019-03-03T12:51:38.740Z,13.00
2019-03-03T12:52:38.752Z,8.90
2019-03-03T12:53:38.697Z,13.20
2019-03-03T12:54:38.711Z,12.20
2019-03-03T12:55:38.686Z,11.30
2019-03-03T12:56:38.785Z,10.60
2019-03-03T12:57:38.674Z,11.60